Time;durP1;ratioP1;P1;durP2;ratioP2;P2;SDS_P1;SDS_P2;PMS_P1;PMS_P2;Temp;Humidity;BMP_temperature;BMP_pressure;BME280_temperature;BME280_humidity;BME280_pressure;Samples;Min_cycle;Max_cycle;Signal;HPM_P1;HPM_P2
2023/12/16 00:00:37;;;;;;;12.68;4.40;;;;;;;9.37;100.00;103815.59;5241647;28;20070;-77
2023/12/16 00:03:12;;;;;;;11.93;4.47;;;;;;;9.41;100.00;103814.59;5235022;28;20032;-77
2023/12/16 00:05:44;;;;;;;13.52;4.45;;;;;;;9.35;100.00;103817.41;5238730;28;20033;-77
2023/12/16 00:08:16;;;;;;;11.80;4.43;;;;;;;9.36;100.00;103814.75;5236950;28;20029;-77
2023/12/16 00:10:48;;;;;;;13.95;4.72;;;;;;;9.34;100.00;103816.53;5240071;28;20077;-77
2023/12/16 00:13:20;;;;;;;13.73;4.70;;;;;;;9.25;100.00;103820.31;5238099;28;20378;-77
2023/12/16 00:15:51;;;;;;;11.13;3.88;;;;;;;9.34;100.00;103823.53;5238095;28;20050;-77
2023/12/16 00:18:24;;;;;;;11.90;4.15;;;;;;;9.31;100.00;103824.50;5239096;28;20048;-77
2023/12/16 00:20:56;;;;;;;12.15;4.30;;;;;;;9.29;100.00;103823.69;5236726;28;20028;-77
2023/12/16 00:23:28;;;;;;;12.52;4.30;;;;;;;9.29;100.00;103815.84;5240668;28;20037;-77
2023/12/16 00:25:59;;;;;;;13.43;4.55;;;;;;;9.35;100.00;103822.63;5239701;28;20029;-77
2023/12/16 00:28:31;;;;;;;12.98;4.63;;;;;;;9.32;100.00;103815.75;5240651;28;20044;-77
2023/12/16 00:31:03;;;;;;;14.30;4.05;;;;;;;9.34;100.00;103816.53;5240291;28;20408;-77
2023/12/16 00:33:35;;;;;;;14.10;4.22;;;;;;;9.33;100.00;103807.00;5244244;28;20510;-77
2023/12/16 00:36:09;;;;;;;14.88;4.68;;;;;;;9.37;100.00;103807.75;5250902;28;20048;-77
2023/12/16 00:38:41;;;;;;;9.05;3.95;;;;;;;9.32;100.00;103809.66;5250068;28;20020;-77
2023/12/16 00:41:13;;;;;;;13.18;4.10;;;;;;;9.30;100.00;103801.84;5247697;28;20051;-77
2023/12/16 00:43:44;;;;;;;10.60;4.05;;;;;;;9.26;100.00;103793.25;5249838;28;20496;-77
2023/12/16 00:46:17;;;;;;;10.55;4.10;;;;;;;9.33;100.00;103791.31;5248740;28;20502;-77
2023/12/16 00:48:48;;;;;;;12.90;3.88;;;;;;;9.31;100.00;103787.84;5250149;28;20044;-77
2023/12/16 00:51:20;;;;;;;11.30;3.60;;;;;;;9.31;100.00;103787.00;5250085;28;20389;-77
2023/12/16 00:53:52;;;;;;;9.60;3.97;;;;;;;9.30;100.00;103794.00;5252759;28;20034;-77
2023/12/16 00:56:24;;;;;;;13.23;3.72;;;;;;;9.21;100.00;103795.16;5254129;28;20125;-77
2023/12/16 00:58:56;;;;;;;10.15;3.72;;;;;;;9.23;100.00;103797.72;5252421;28;20033;-77
2023/12/16 01:01:28;;;;;;;11.27;3.47;;;;;;;9.28;100.00;103801.06;5251958;28;20386;-77
2023/12/16 01:04:00;;;;;;;11.38;3.30;;;;;;;9.24;100.00;103794.19;5255744;28;20035;-77
2023/12/16 01:06:32;;;;;;;11.68;4.05;;;;;;;9.25;100.00;103793.31;5252493;28;20032;-77
2023/12/16 01:09:04;;;;;;;13.73;3.65;;;;;;;9.23;100.00;103793.34;5253835;28;20074;-77
2023/12/16 01:11:36;;;;;;;10.55;3.92;;;;;;;9.24;100.00;103809.88;5254648;28;20017;-77
2023/12/16 01:14:08;;;;;;;12.10;3.90;;;;;;;9.17;100.00;103805.78;5255158;28;20474;-77
2023/12/16 01:16:40;;;;;;;10.73;3.80;;;;;;;9.20;100.00;103810.88;5250116;28;20087;-77
2023/12/16 01:19:12;;;;;;;10.48;3.65;;;;;;;9.15;100.00;103804.97;5253329;28;20430;-77
2023/12/16 01:21:44;;;;;;;10.98;3.45;;;;;;;9.15;100.00;103804.97;5254838;28;20054;-77
2023/12/16 01:24:16;;;;;;;11.93;3.85;;;;;;;9.14;100.00;103803.25;5252441;28;20033;-77
2023/12/16 01:26:48;;;;;;;13.13;3.88;;;;;;;9.20;100.00;103797.81;5253368;28;20025;-77
2023/12/16 01:29:19;;;;;;;9.63;3.72;;;;;;;9.23;100.00;103805.56;5254717;28;20079;-77
2023/12/16 01:31:51;;;;;;;10.18;2.97;;;;;;;9.23;100.00;103803.81;5253201;28;20039;-77
2023/12/16 01:34:23;;;;;;;9.98;3.72;;;;;;;9.22;100.00;103802.09;5242601;28;20045;-77
2023/12/16 01:36:56;;;;;;;15.73;4.15;;;;;;;9.22;100.00;103790.78;5241147;28;20496;-77
2023/12/16 01:39:28;;;;;;;9.75;3.05;;;;;;;9.26;100.00;103788.03;5244524;28;20048;-77
2023/12/16 01:41:59;;;;;;;10.52;3.55;;;;;;;9.23;100.00;103784.63;5242431;28;20030;-77
2023/12/16 01:44:31;;;;;;;11.10;3.92;;;;;;;9.26;100.00;103774.94;5241144;28;20033;-77
2023/12/16 01:47:03;;;;;;;10.98;3.30;;;;;;;9.26;100.00;103788.03;5246347;28;20038;-77
2023/12/16 01:49:37;;;;;;;13.32;3.97;;;;;;;9.24;100.00;103789.84;5240532;28;20537;-77
2023/12/16 01:52:09;;;;;;;13.73;4.07;;;;;;;9.20;100.00;103785.59;5241370;28;20460;-77
2023/12/16 01:54:41;;;;;;;10.82;3.13;;;;;;;9.19;100.00;103785.66;5240392;28;20040;-77
2023/12/16 01:57:14;;;;;;;9.60;3.17;;;;;;;9.18;100.00;103794.41;5242636;28;20041;-77
2023/12/16 01:59:46;;;;;;;9.80;3.73;;;;;;;9.20;100.00;103790.81;5244846;28;20044;-77
2023/12/16 02:02:18;;;;;;;10.10;3.10;;;;;;;9.17;100.00;103797.94;5237972;28;20034;-77
2023/12/16 02:04:50;;;;;;;9.95;3.33;;;;;;;9.18;100.00;103790.03;5240530;28;20029;-77
2023/12/16 02:07:22;;;;;;;9.02;2.90;;;;;;;9.16;100.00;103786.59;5243954;28;20375;-77
2023/12/16 02:09:55;;;;;;;14.20;3.85;;;;;;;9.07;100.00;103783.44;5243417;28;20029;-77
2023/12/16 02:12:27;;;;;;;12.65;4.22;;;;;;;9.10;100.00;103786.81;5242325;28;20040;-77
2023/12/16 02:15:00;;;;;;;10.23;4.13;;;;;;;9.11;100.00;103783.28;5241474;28;20033;-77
2023/12/16 02:17:32;;;;;;;10.43;3.50;;;;;;;9.10;100.00;103792.03;5241074;28;20037;-77
2023/12/16 02:20:04;;;;;;;9.35;3.70;;;;;;;9.05;100.00;103791.31;5242485;28;20039;-77
2023/12/16 02:22:36;;;;;;;12.32;4.03;;;;;;;9.01;100.00;103785.31;5243066;28;20040;-77
2023/12/16 02:25:10;;;;;;;12.40;3.45;;;;;;;8.91;100.00;103783.91;5243006;28;20043;-77
2023/12/16 02:27:44;;;;;;;11.25;3.60;;;;;;;8.87;100.00;103779.69;5243659;28;20036;-77
2023/12/16 02:30:20;;;;;;;9.77;3.35;;;;;;;8.87;100.00;103784.91;5239522;28;20028;-77
2023/12/16 02:32:55;;;;;;;10.05;3.25;;;;;;;8.82;100.00;103780.69;5244404;28;21316;-77
2023/12/16 02:35:27;;;;;;;11.25;3.63;;;;;;;8.77;100.00;103779.09;5234520;28;20037;-77
2023/12/16 02:37:59;;;;;;;9.40;2.97;;;;;;;8.74;100.00;103780.94;5240543;28;20038;-77
2023/12/16 02:40:31;;;;;;;13.77;3.75;;;;;;;8.70;100.00;103781.94;5242446;28;20604;-77
2023/12/16 02:43:03;;;;;;;11.93;4.13;;;;;;;8.65;100.00;103792.53;5234459;28;20029;-77
2023/12/16 02:45:35;;;;;;;11.18;3.58;;;;;;;8.64;100.00;103795.19;5239303;28;20036;-77
2023/12/16 02:48:06;;;;;;;8.57;3.67;;;;;;;8.63;100.00;103807.38;5240496;28;20112;-78
2023/12/16 02:50:38;;;;;;;12.93;3.63;;;;;;;8.62;100.00;103799.59;5240958;28;20033;-78
2023/12/16 02:53:10;;;;;;;11.60;3.60;;;;;;;8.58;100.00;103800.59;5241293;28;20033;-78
2023/12/16 02:55:42;;;;;;;10.82;3.55;;;;;;;8.62;100.00;103800.44;5242078;28;20036;-78
2023/12/16 02:58:14;;;;;;;11.15;3.22;;;;;;;8.63;100.00;103793.47;5241307;28;20043;-78
2023/12/16 03:00:46;;;;;;;10.82;3.63;;;;;;;8.62;100.00;103790.00;5242329;28;20031;-77
2023/12/16 03:03:18;;;;;;;9.80;3.65;;;;;;;8.68;100.00;103783.75;5237113;28;20033;-76
2023/12/16 03:05:50;;;;;;;11.35;3.97;;;;;;;8.61;100.00;103775.22;5244461;28;20104;-77
2023/12/16 03:08:21;;;;;;;13.90;3.58;;;;;;;8.60;100.00;103783.09;5238888;28;20041;-76
2023/12/16 03:10:54;;;;;;;13.07;4.28;;;;;;;8.56;100.00;103776.25;5239248;28;20041;-77
2023/12/16 03:13:26;;;;;;;12.38;3.40;;;;;;;8.61;100.00;103771.75;5241550;28;20045;-77
2023/12/16 03:15:58;;;;;;;10.45;3.35;;;;;;;8.59;100.00;103779.63;5236568;28;20499;-78
2023/12/16 03:18:30;;;;;;;9.23;3.15;;;;;;;8.62;100.00;103776.09;5240698;28;20364;-78
2023/12/16 03:21:05;;;;;;;12.05;4.00;;;;;;;8.61;100.00;103782.22;5242305;28;20087;-77
2023/12/16 03:23:36;;;;;;;14.40;3.80;;;;;;;8.58;100.00;103784.91;5241776;28;20363;-78
2023/12/16 03:26:09;;;;;;;8.82;3.47;;;;;;;8.58;100.00;103783.16;5240968;28;20036;-77
2023/12/16 03:28:40;;;;;;;9.02;3.78;;;;;;;8.60;100.00;103777.88;5240957;28;20034;-77
2023/12/16 03:31:12;;;;;;;11.00;4.03;;;;;;;8.58;100.00;103779.69;5240914;28;20379;-77
2023/12/16 03:33:44;;;;;;;14.95;4.25;;;;;;;8.57;100.00;103772.75;5246134;28;20060;-77
2023/12/16 03:36:16;;;;;;;9.55;3.83;;;;;;;8.57;100.00;103777.97;5244786;28;20035;-77
2023/12/16 03:38:48;;;;;;;15.82;4.50;;;;;;;8.57;100.00;103776.22;5239340;28;20105;-77
2023/12/16 03:41:20;;;;;;;13.85;4.03;;;;;;;8.59;100.00;103784.84;5245057;28;20083;-77
2023/12/16 03:43:52;;;;;;;11.63;4.45;;;;;;;8.60;100.00;103789.19;5241226;28;20045;-78
2023/12/16 03:46:24;;;;;;;14.35;4.00;;;;;;;8.61;100.00;103792.66;5241662;28;20033;-77
2023/12/16 03:48:56;;;;;;;11.02;4.00;;;;;;;8.57;100.00;103784.06;5236631;28;20120;-78
2023/12/16 03:51:27;;;;;;;12.27;4.32;;;;;;;8.62;100.00;103776.09;5238145;28;20109;-77
2023/12/16 03:53:59;;;;;;;16.27;4.70;;;;;;;8.64;100.00;103785.59;5238287;28;20037;-78
2023/12/16 03:56:31;;;;;;;14.55;4.68;;;;;;;8.67;100.00;103793.31;5237621;28;20029;-77
2023/12/16 03:59:04;;;;;;;14.82;4.82;;;;;;;8.68;100.00;103788.97;5238465;28;20033;-79
2023/12/16 04:01:36;;;;;;;12.45;4.43;;;;;;;8.76;100.00;103786.97;5238600;28;20039;-77
2023/12/16 04:04:08;;;;;;;13.80;4.60;;;;;;;8.78;100.00;103787.78;5235787;28;20449;-78
2023/12/16 04:06:39;;;;;;;12.43;4.38;;;;;;;8.83;100.00;103790.28;5240738;28;20402;-77
2023/12/16 04:09:11;;;;;;;10.38;4.00;;;;;;;8.80;100.00;103796.44;5238223;28;20033;-77
2023/12/16 04:11:47;;;;;;;12.48;3.38;;;;;;;8.92;100.00;103793.44;5240957;28;20025;-77
2023/12/16 04:14:19;;;;;;;11.40;4.30;;;;;;;8.76;100.00;103785.22;5238241;28;20025;-77
2023/12/16 04:16:51;;;;;;;16.05;4.22;;;;;;;8.85;100.00;103797.16;5241574;28;20083;-78
2023/12/16 04:19:23;;;;;;;12.95;3.92;;;;;;;8.91;100.00;103807.44;5240556;28;20033;-79
2023/12/16 04:21:55;;;;;;;13.75;3.78;;;;;;;8.89;100.00;103798.78;5238098;28;20503;-77
2023/12/16 04:24:27;;;;;;;10.65;3.67;;;;;;;8.93;100.00;103789.06;5223457;28;20380;-77
2023/12/16 04:26:59;;;;;;;9.32;3.60;;;;;;;8.90;100.00;103790.03;5239208;28;20042;-78
2023/12/16 04:29:30;;;;;;;11.90;3.85;;;;;;;8.92;100.00;103787.38;5245107;28;20037;-77
2023/12/16 04:32:03;;;;;;;15.00;4.70;;;;;;;8.94;100.00;103788.16;5243546;28;20096;-77
2023/12/16 04:34:34;;;;;;;10.88;4.03;;;;;;;8.87;100.00;103779.69;5253604;28;20068;-77
2023/12/16 04:37:06;;;;;;;12.88;4.65;;;;;;;8.90;100.00;103787.44;5247467;28;20036;-78
2023/12/16 04:39:38;;;;;;;12.68;3.92;;;;;;;8.88;100.00;103784.00;5250109;28;20043;-77
2023/12/16 04:42:10;;;;;;;12.90;4.15;;;;;;;8.87;100.00;103774.44;5251768;28;20390;-77
2023/12/16 04:44:42;;;;;;;13.38;4.00;;;;;;;8.80;100.00;103772.06;5253736;28;20048;-77
2023/12/16 04:47:14;;;;;;;12.48;4.55;;;;;;;8.78;100.00;103777.31;5254552;28;20029;-77
2023/12/16 04:49:46;;;;;;;12.52;4.30;;;;;;;8.72;100.00;103774.91;5254355;28;20042;-77
2023/12/16 04:52:18;;;;;;;11.05;3.97;;;;;;;8.60;100.00;103759.56;5251325;28;20021;-77
2023/12/16 04:54:50;;;;;;;13.32;5.25;;;;;;;8.65;100.00;103773.38;5253716;28;20028;-77
2023/12/16 04:57:22;;;;;;;12.98;4.05;;;;;;;8.67;100.00;103771.56;5254736;28;20401;-77
2023/12/16 04:59:54;;;;;;;14.40;4.10;;;;;;;8.64;100.00;103764.69;5250062;28;20044;-77
2023/12/16 05:02:25;;;;;;;11.40;3.83;;;;;;;8.64;100.00;103771.69;5254546;28;20127;-77
2023/12/16 05:04:57;;;;;;;12.98;4.78;;;;;;;8.58;100.00;103771.84;5254180;28;20025;-77
2023/12/16 05:07:29;;;;;;;14.57;4.22;;;;;;;8.56;100.00;103774.53;5252292;28;20036;-77
2023/12/16 05:10:01;;;;;;;13.02;3.80;;;;;;;8.48;100.00;103772.09;5253488;28;20025;-78
2023/12/16 05:12:33;;;;;;;14.90;4.28;;;;;;;8.45;100.00;103779.19;5253265;28;20029;-78
2023/12/16 05:15:05;;;;;;;11.57;3.78;;;;;;;8.44;100.00;103780.06;5254273;28;20031;-77
2023/12/16 05:17:37;;;;;;;14.87;4.03;;;;;;;8.39;100.00;103776.75;5252873;28;20032;-78
2023/12/16 05:20:09;;;;;;;17.15;4.57;;;;;;;8.41;100.00;103788.88;5253423;28;20025;-77
2023/12/16 05:22:41;;;;;;;12.55;3.70;;;;;;;8.35;100.00;103783.78;5252806;28;20399;-77
2023/12/16 05:25:13;;;;;;;10.88;3.97;;;;;;;8.36;100.00;103788.09;5253758;28;20112;-77
2023/12/16 05:27:45;;;;;;;9.30;3.72;;;;;;;8.31;100.00;103784.78;5252484;28;20032;-77
2023/12/16 05:30:17;;;;;;;12.85;4.38;;;;;;;8.35;100.00;103794.22;5253393;28;20029;-77
2023/12/16 05:32:49;;;;;;;14.73;3.85;;;;;;;8.28;100.00;103784.84;5251672;28;20040;-78
2023/12/16 05:35:21;;;;;;;9.35;3.83;;;;;;;8.23;100.00;103782.38;5245442;28;20044;-77
2023/12/16 05:37:53;;;;;;;11.85;3.60;;;;;;;8.14;100.00;103786.97;5242149;28;20108;-78
2023/12/16 05:40:25;;;;;;;12.40;3.40;;;;;;;8.18;100.00;103783.38;5242949;28;20036;-77
2023/12/16 05:42:57;;;;;;;10.90;3.80;;;;;;;8.15;100.00;103781.75;5243139;28;20494;-77
2023/12/16 05:45:28;;;;;;;13.00;3.92;;;;;;;8.19;100.00;103791.19;5242044;28;20037;-78
2023/12/16 05:48:00;;;;;;;13.48;4.03;;;;;;;8.13;100.00;103798.34;5239621;28;20029;-77
2023/12/16 05:50:32;;;;;;;11.43;3.97;;;;;;;8.14;100.00;103793.06;5241889;28;20116;-77
2023/12/16 05:53:06;;;;;;;8.45;3.33;;;;;;;8.09;100.00;103800.16;5241300;28;20040;-77
2023/12/16 05:55:38;;;;;;;14.15;4.22;;;;;;;8.05;100.00;103788.09;5241558;28;20060;-78
2023/12/16 05:58:10;;;;;;;14.48;4.60;;;;;;;8.04;100.00;103784.63;5226835;28;20046;-77
2023/12/16 06:00:42;;;;;;;17.00;4.57;;;;;;;8.00;100.00;103776.94;5244311;28;20040;-77
2023/12/16 06:03:14;;;;;;;14.45;4.07;;;;;;;7.94;100.00;103777.09;5240122;28;20033;-78
2023/12/16 06:05:46;;;;;;;11.48;3.83;;;;;;;7.94;100.00;103770.09;5241876;28;20041;-77
2023/12/16 06:08:18;;;;;;;17.85;4.85;;;;;;;7.91;100.00;103775.41;5244072;28;20031;-76
2023/12/16 06:10:50;;;;;;;13.88;4.57;;;;;;;7.89;100.00;103777.22;5224164;28;20438;-76
2023/12/16 06:13:22;;;;;;;13.15;3.92;;;;;;;7.88;100.00;103785.94;5248105;28;20037;-78
2023/12/16 06:15:53;;;;;;;12.50;4.47;;;;;;;7.87;100.00;103799.88;5242409;28;20039;-76
2023/12/16 06:18:25;;;;;;;9.40;3.88;;;;;;;7.85;100.00;103793.00;5241050;28;20062;-77
2023/12/16 06:20:57;;;;;;;10.82;3.85;;;;;;;7.84;100.00;103797.38;5239608;28;20039;-77
2023/12/16 06:23:30;;;;;;;13.23;4.10;;;;;;;7.78;100.00;103779.25;5243519;28;20041;-77
2023/12/16 06:26:02;;;;;;;17.83;4.10;;;;;;;7.81;100.00;103787.00;5241604;28;20029;-77
2023/12/16 06:28:34;;;;;;;13.50;4.32;;;;;;;7.81;100.00;103779.19;5237456;28;20048;-77
2023/12/16 06:31:14;;;;;;;14.43;5.30;;;;;;;7.93;100.00;103781.44;5225463;28;20041;-76
2023/12/16 06:33:46;;;;;;;16.73;5.15;;;;;;;7.80;100.00;103787.88;5249511;28;20036;-76
2023/12/16 06:36:18;;;;;;;11.90;3.70;;;;;;;7.82;100.00;103790.47;5249950;28;20483;-76
2023/12/16 06:38:50;;;;;;;11.52;4.05;;;;;;;7.82;100.00;103788.72;5249434;28;20035;-76
2023/12/16 06:41:21;;;;;;;15.18;3.97;;;;;;;7.73;100.00;103778.53;5251039;28;20437;-77
2023/12/16 06:43:53;;;;;;;11.38;3.45;;;;;;;7.78;100.00;103789.69;5247808;28;20037;-77
2023/12/16 06:46:25;;;;;;;12.60;4.32;;;;;;;7.76;100.00;103784.50;5248089;28;20037;-76
2023/12/16 06:48:57;;;;;;;9.48;3.20;;;;;;;7.79;100.00;103791.38;5250939;28;20359;-76
2023/12/16 06:51:29;;;;;;;11.45;4.28;;;;;;;7.76;100.00;103791.47;5250621;28;20044;-76
2023/12/16 06:54:01;;;;;;;17.60;5.32;;;;;;;7.72;100.00;103785.47;5248035;28;20028;-77
2023/12/16 06:56:33;;;;;;;14.20;3.53;;;;;;;7.72;100.00;103785.47;5247887;28;20045;-76
2023/12/16 06:59:05;;;;;;;15.63;3.67;;;;;;;7.68;100.00;103789.06;5251622;28;20419;-76
2023/12/16 07:01:37;;;;;;;12.85;3.88;;;;;;;7.64;100.00;103783.97;5252858;28;20397;-76
2023/12/16 07:04:09;;;;;;;13.57;3.97;;;;;;;7.63;100.00;103796.16;5250908;28;20029;-76
2023/12/16 07:06:41;;;;;;;13.38;3.40;;;;;;;7.64;100.00;103797.00;5250282;28;20043;-76
2023/12/16 07:09:12;;;;;;;10.35;3.83;;;;;;;7.67;100.00;103794.31;5251738;28;20471;-76
2023/12/16 07:11:44;;;;;;;12.40;4.38;;;;;;;7.63;100.00;103795.31;5251143;28;20402;-76
2023/12/16 07:14:16;;;;;;;9.45;4.03;;;;;;;7.63;100.00;103800.53;5246621;28;20029;-76
2023/12/16 07:16:48;;;;;;;11.30;3.55;;;;;;;7.63;100.00;103800.53;5250738;28;20111;-76
2023/12/16 07:19:20;;;;;;;13.82;3.95;;;;;;;7.57;100.00;103802.38;5249198;28;20037;-76
2023/12/16 07:21:52;;;;;;;10.15;4.00;;;;;;;7.58;100.00;103811.06;5245472;28;20030;-76
2023/12/16 07:24:24;;;;;;;11.90;3.75;;;;;;;7.60;100.00;103805.81;5251196;28;20033;-76
2023/12/16 07:26:56;;;;;;;12.90;3.60;;;;;;;7.57;100.00;103807.59;5250234;28;20486;-76
2023/12/16 07:29:28;;;;;;;12.60;3.97;;;;;;;7.60;100.00;103811.03;5251496;28;20401;-76
2023/12/16 07:32:00;;;;;;;12.00;4.15;;;;;;;7.51;100.00;103810.34;5250549;28;20422;-76
2023/12/16 07:34:32;;;;;;;10.73;3.35;;;;;;;7.55;100.00;103814.59;5249766;28;20462;-76
2023/12/16 07:37:04;;;;;;;11.27;3.95;;;;;;;7.53;100.00;103818.13;5244991;28;20060;-76
2023/12/16 07:39:36;;;;;;;12.50;3.97;;;;;;;7.56;100.00;103825.91;5245929;28;20037;-76
2023/12/16 07:42:08;;;;;;;13.10;3.88;;;;;;;7.54;100.00;103818.13;5247338;28;20027;-76
2023/12/16 07:44:40;;;;;;;12.93;3.38;;;;;;;7.55;100.00;103824.19;5251436;28;20056;-76
2023/12/16 07:47:12;;;;;;;16.88;5.30;;;;;;;7.52;100.00;103822.50;5251688;28;20017;-76
2023/12/16 07:49:44;;;;;;;16.05;4.20;;;;;;;7.52;100.00;103824.25;5248045;28;20041;-76
2023/12/16 07:52:16;;;;;;;11.55;3.92;;;;;;;7.52;100.00;103825.13;5250756;28;20032;-76
2023/12/16 07:54:48;;;;;;;12.55;4.50;;;;;;;7.54;100.00;103818.13;5250486;28;20096;-76
2023/12/16 07:57:20;;;;;;;13.50;3.58;;;;;;;7.55;100.00;103824.19;5250571;28;20475;-76
2023/12/16 07:59:52;;;;;;;13.60;3.88;;;;;;;7.54;100.00;103823.34;5251107;28;20387;-76
2023/12/16 08:02:24;;;;;;;11.02;3.70;;;;;;;7.53;100.00;103826.81;5251527;28;20041;-76
2023/12/16 08:04:55;;;;;;;11.68;3.55;;;;;;;7.51;100.00;103831.22;5248013;28;20111;-76
2023/12/16 08:07:27;;;;;;;15.23;3.65;;;;;;;7.53;100.00;103832.03;5248463;28;20037;-76
2023/12/16 08:09:59;;;;;;;13.40;3.90;;;;;;;7.54;100.00;103836.38;5250834;28;20124;-76
2023/12/16 08:12:31;;;;;;;18.40;3.90;;;;;;;7.59;100.00;103838.03;5249084;28;20143;-76
2023/12/16 08:15:04;;;;;;;18.52;4.90;;;;;;;7.65;100.00;103845.69;5251351;28;20028;-76
2023/12/16 08:17:37;;;;;;;13.60;4.03;;;;;;;7.66;100.00;103844.81;5249426;28;20036;-76
2023/12/16 08:20:09;;;;;;;13.82;3.53;;;;;;;7.67;100.00;103836.06;5250748;28;21072;-76
2023/12/16 08:22:41;;;;;;;12.80;3.45;;;;;;;7.72;100.00;103853.31;5247847;28;20033;-76
2023/12/16 08:25:13;;;;;;;11.75;3.17;;;;;;;7.72;100.00;103855.06;5246477;28;20037;-76
2023/12/16 08:27:45;;;;;;;11.55;3.63;;;;;;;7.75;100.00;103849.78;5246883;28;20040;-76
2023/12/16 08:30:17;;;;;;;12.27;3.80;;;;;;;7.81;100.00;103849.66;5248922;28;20040;-76
2023/12/16 08:32:48;;;;;;;13.32;4.32;;;;;;;7.89;100.00;103854.69;5245598;28;20095;-76
2023/12/16 08:35:20;;;;;;;10.18;3.30;;;;;;;7.98;100.00;103860.50;5237826;28;20056;-76
2023/12/16 08:37:52;;;;;;;13.52;3.53;;;;;;;8.00;100.00;103856.13;5234534;28;20635;-76
2023/12/16 08:40:24;;;;;;;13.25;3.08;;;;;;;8.08;100.00;103860.28;5230497;28;20041;-76
2023/12/16 08:42:56;;;;;;;13.35;3.83;;;;;;;8.17;100.00;103858.28;5215068;28;20033;-76
2023/12/16 08:45:28;;;;;;;11.43;3.67;;;;;;;8.23;100.00;103852.03;5234128;28;20041;-76
2023/12/16 08:48:00;;;;;;;10.10;2.88;;;;;;;7.89;100.00;103847.69;5232341;28;20033;-76
2023/12/16 08:50:33;;;;;;;12.75;3.85;;;;;;;7.89;100.00;103855.53;5233681;28;20029;-76
2023/12/16 08:53:07;;;;;;;10.98;3.83;;;;;;;7.99;100.00;103858.75;5236360;28;20032;-76
2023/12/16 08:55:42;;;;;;;14.70;3.80;;;;;;;8.04;100.00;103851.66;5237937;28;20029;-76
2023/12/16 08:58:14;;;;;;;13.13;3.95;;;;;;;8.05;100.00;103843.78;5235091;28;20519;-76
2023/12/16 09:00:47;;;;;;;15.07;4.13;;;;;;;8.06;100.00;103847.25;5237909;28;20036;-76
2023/12/16 09:03:19;;;;;;;;;;;;;;;8.46;100.00;103836.63;5233634;28;20063;-76
2023/12/16 09:05:51;;;;;;;11.82;3.60;;;;;;;8.18;100.00;103846.94;5239542;28;19920;-76
2023/12/16 09:08:23;;;;;;;16.05;3.63;;;;;;;8.21;100.00;103856.44;5237597;28;20037;-76
2023/12/16 09:10:55;;;;;;;14.52;3.33;;;;;;;8.23;100.00;103860.72;5229019;28;20029;-77
2023/12/16 09:13:27;;;;;;;14.55;3.63;;;;;;;8.31;100.00;103870.13;5237134;28;20475;-76
2023/12/16 09:15:59;;;;;;;14.73;4.20;;;;;;;8.32;100.00;103867.44;5242016;28;20466;-76
2023/12/16 09:18:31;;;;;;;12.77;2.95;;;;;;;8.34;100.00;103865.66;5243880;28;20029;-76
2023/12/16 09:21:02;;;;;;;12.15;3.53;;;;;;;8.40;100.00;103854.22;5241602;28;20025;-76
2023/12/16 09:23:35;;;;;;;14.40;3.80;;;;;;;8.42;100.00;103857.66;5242101;28;20108;-76
2023/12/16 09:26:07;;;;;;;13.03;3.10;;;;;;;8.48;100.00;103866.16;5240112;28;20028;-76
2023/12/16 09:28:39;;;;;;;17.30;3.88;;;;;;;8.52;100.00;103864.31;5241438;28;20757;-76
2023/12/16 09:31:10;;;;;;;15.27;3.78;;;;;;;8.58;100.00;103874.63;5240880;28;20029;-76
2023/12/16 09:33:42;;;;;;;12.38;3.80;;;;;;;8.94;100.00;103872.72;5240812;28;20499;-76
2023/12/16 09:36:14;;;;;;;16.08;4.10;;;;;;;9.07;100.00;103878.44;5233107;28;20368;-76
2023/12/16 09:38:46;;;;;;;10.35;3.50;;;;;;;9.14;100.00;103881.72;5237269;28;20043;-76
2023/12/16 09:41:22;;;;;;;14.00;3.50;;;;;;;9.28;100.00;103890.03;5238852;28;20035;-76
2023/12/16 09:43:58;;;;;;;16.17;4.15;;;;;;;9.31;100.00;103889.91;5240080;28;20037;-76
2023/12/16 09:46:31;;;;;;;12.00;3.75;;;;;;;9.34;100.00;103881.97;5241074;28;20037;-76
2023/12/16 09:49:02;;;;;;;13.50;4.60;;;;;;;9.37;100.00;103874.03;5242228;28;20040;-76
2023/12/16 09:51:34;;;;;;;10.65;3.05;;;;;;;9.42;100.00;103884.34;5239619;28;21065;-76
2023/12/16 09:54:07;;;;;;;13.07;4.07;;;;;;;9.42;100.00;103881.72;5243202;28;20080;-76
2023/12/16 09:56:39;;;;;;;14.82;4.57;;;;;;;9.54;100.00;103890.94;5238226;28;20030;-77
2023/12/16 09:59:13;;;;;;;8.38;3.15;;;;;;;9.56;100.00;103891.75;5239877;28;20021;-76
2023/12/16 10:01:53;;;;;;;12.45;4.00;;;;;;;9.72;100.00;103895.59;5241666;28;20041;-76
2023/12/16 10:04:26;;;;;;;17.30;4.78;;;;;;;9.56;100.00;103895.25;5241276;28;20033;-76
2023/12/16 10:06:58;;;;;;;15.68;4.93;;;;;;;9.71;100.00;103891.28;5243292;28;20376;-76
2023/12/16 10:09:30;;;;;;;15.10;3.80;;;;;;;9.72;100.00;103892.97;5239108;28;20043;-76
2023/12/16 10:12:06;;;;;;;14.73;4.63;;;;;;;9.79;100.00;103901.50;5239850;28;20033;-77
2023/12/16 10:14:48;;;;;;;17.95;4.75;;;;;;;9.98;100.00;103899.97;5242885;28;20029;-77
2023/12/16 10:17:20;;;;;;;15.55;4.60;;;;;;;9.84;100.00;103887.34;5240696;28;20475;-77
2023/12/16 10:19:52;;;;;;;14.33;4.30;;;;;;;9.99;100.00;103896.44;5239679;28;20491;-77
2023/12/16 10:22:24;;;;;;;15.80;5.07;;;;;;;9.96;100.00;103899.16;5239649;28;20033;-77
2023/12/16 10:24:56;;;;;;;14.05;4.20;;;;;;;9.97;100.00;103900.91;5239224;28;20033;-77
2023/12/16 10:27:28;;;;;;;12.00;4.57;;;;;;;10.05;100.00;103896.25;5238400;28;20513;-77
2023/12/16 10:30:02;;;;;;;16.25;5.07;;;;;;;10.07;100.00;103898.81;5242931;28;20035;-77
2023/12/16 10:32:37;;;;;;;15.88;5.30;;;;;;;10.18;100.00;103892.28;5243200;28;20049;-77
2023/12/16 10:35:10;;;;;;;12.30;5.03;;;;;;;10.12;100.00;103891.66;5239318;28;20033;-77
2023/12/16 10:37:49;;;;;;;13.15;5.15;;;;;;;10.27;100.00;103900.81;5239079;28;20523;-77
2023/12/16 10:40:22;;;;;;;15.55;5.05;;;;;;;10.18;100.00;103894.06;5231658;28;21021;-77
2023/12/16 10:42:54;;;;;;;19.13;5.45;;;;;;;10.24;100.00;103889.47;5235099;28;20379;-77
2023/12/16 10:45:26;;;;;;;14.20;5.20;;;;;;;10.26;100.00;103883.34;5233046;28;20041;-77
2023/12/16 10:48:02;;;;;;;12.18;4.53;;;;;;;10.31;100.00;103882.28;5229076;28;20033;-77
2023/12/16 10:50:41;;;;;;;15.05;5.95;;;;;;;10.38;100.00;103881.16;5236571;28;20021;-77
2023/12/16 10:53:31;;;;;;;15.45;5.93;;;;;;;10.50;100.00;103874.63;5239452;28;20052;-77
2023/12/16 10:56:07;;;;;;;13.02;5.57;;;;;;;10.37;100.00;103884.69;5240947;28;20484;-77
2023/12/16 10:58:48;;;;;;;14.43;5.22;;;;;;;10.43;100.00;103870.50;5238349;28;20032;-77
2023/12/16 11:01:22;;;;;;;15.48;5.53;;;;;;;10.44;100.00;103865.19;5240120;28;20037;-77
2023/12/16 11:04:09;;;;;;;17.10;5.22;;;;;;;10.51;100.00;103873.72;5241422;28;20391;-77
2023/12/16 11:07:09;;;;;;;13.00;4.45;;;;;;;10.62;100.00;103873.31;5235763;28;20037;-77
2023/12/16 11:09:41;;;;;;;15.98;4.90;;;;;;;10.50;100.00;103865.91;5241241;28;20033;-77
2023/12/16 11:12:13;;;;;;;14.90;5.40;;;;;;;10.46;100.00;103862.53;5239304;28;20035;-77
2023/12/16 11:14:46;;;;;;;10.90;4.75;;;;;;;10.46;100.00;103855.53;5236719;28;20387;-77
2023/12/16 11:17:31;;;;;;;16.50;4.95;;;;;;;10.70;100.00;103866.88;5243516;28;20033;-77
2023/12/16 11:20:06;;;;;;;15.48;5.57;;;;;;;10.67;100.00;103858.25;5235504;28;20029;-77
2023/12/16 11:22:52;;;;;;;22.58;5.63;;;;;;;10.79;100.00;103847.31;5243312;28;20041;-77
2023/12/16 11:25:25;;;;;;;16.23;6.00;;;;;;;10.44;100.00;103841.63;5239280;28;20506;-77
2023/12/16 11:27:57;;;;;;;18.27;5.55;;;;;;;10.54;100.00;103839.53;5237694;28;20052;-77
2023/12/16 11:30:32;;;;;;;16.87;5.33;;;;;;;10.56;100.00;103839.47;5237524;28;20029;-77
2023/12/16 11:33:04;;;;;;;16.27;5.95;;;;;;;10.53;100.00;103850.03;5234845;28;20296;-77
2023/12/16 11:35:37;;;;;;;20.77;5.85;;;;;;;10.63;100.00;103844.41;5236135;28;20092;-77
2023/12/16 11:38:09;;;;;;;16.23;5.72;;;;;;;10.64;100.00;103835.63;5242223;28;20036;-77
2023/12/16 11:40:51;;;;;;;18.92;6.25;;;;;;;10.70;100.00;103839.81;5233862;28;20033;-77